Time;durP1;ratioP1;P1;durP2;ratioP2;P2;SDS_P1;SDS_P2;PMS_P1;PMS_P2;Temp;Humidity;BMP_temperature;BMP_pressure;BME280_temperature;BME280_humidity;BME280_pressure;Samples;Min_cycle;Max_cycle;Signal;HPM_P1;HPM_P2
2021/07/09 00:01:44;;;;;;;4.60;2.40;;;;;;;15.61;97.91;99021.00;5033451;28;20399;-71
2021/07/09 00:04:10;;;;;;;8.27;2.53;;;;;;;15.66;97.46;99018.44;5030765;28;20029;-71
2021/07/09 00:06:36;;;;;;;4.32;2.22;;;;;;;15.42;97.05;98991.06;5032585;28;20022;-71
2021/07/09 00:09:04;;;;;;;4.07;2.47;;;;;;;15.61;97.45;99024.56;5026947;28;20076;-71
2021/07/09 00:11:31;;;;;;;4.75;2.60;;;;;;;15.64;96.73;99021.41;5013972;28;20109;-71
2021/07/09 00:13:56;;;;;;;3.88;2.53;;;;;;;15.50;96.64;99004.38;5013870;28;20029;-71
2021/07/09 00:16:21;;;;;;;5.82;2.75;;;;;;;15.55;96.73;99000.94;5002748;28;20031;-70
2021/07/09 00:18:48;;;;;;;5.72;2.78;;;;;;;15.65;96.61;99017.59;5031656;28;20072;-71
2021/07/09 00:21:15;;;;;;;3.50;2.58;;;;;;;15.63;96.08;99013.44;5033330;28;20037;-71
2021/07/09 00:23:41;;;;;;;3.88;2.17;;;;;;;15.68;96.13;99027.22;5029470;28;20092;-71
2021/07/09 00:26:06;;;;;;;6.47;3.05;;;;;;;15.67;95.87;99023.66;5033465;28;20025;-71
2021/07/09 00:28:32;;;;;;;4.43;2.65;;;;;;;15.54;95.95;99000.13;5033631;28;20431;-71
2021/07/09 00:30:57;;;;;;;6.60;2.70;;;;;;;15.48;96.18;99006.50;5033397;28;20026;-69
2021/07/09 00:33:23;;;;;;;4.13;2.70;;;;;;;15.53;96.10;99016.72;5032197;28;20029;-71
2021/07/09 00:35:49;;;;;;;6.93;3.20;;;;;;;15.50;96.29;99004.38;5033272;28;20032;-71
2021/07/09 00:38:14;;;;;;;4.55;2.47;;;;;;;15.42;96.30;98993.78;5033274;28;20110;-71
2021/07/09 00:40:40;;;;;;;3.67;2.85;;;;;;;15.49;96.49;99013.63;5033396;28;20483;-69
2021/07/09 00:43:05;;;;;;;5.70;2.70;;;;;;;15.56;95.93;99028.00;5031934;28;20496;-71
2021/07/09 00:45:30;;;;;;;3.08;2.30;;;;;;;15.25;96.06;98985.41;5033122;28;20502;-71
2021/07/09 00:47:56;;;;;;;6.95;2.53;;;;;;;15.54;96.40;99026.56;5015077;28;20026;-69
2021/07/09 00:50:21;;;;;;;5.00;2.63;;;;;;;15.36;96.50;99011.06;5032628;28;20433;-71
2021/07/09 00:52:47;;;;;;;8.32;2.60;;;;;;;15.43;96.23;99010.97;5031842;28;20124;-71
2021/07/09 00:55:13;;;;;;;4.68;2.78;;;;;;;15.51;96.08;99019.69;5031701;28;20037;-69
2021/07/09 00:57:41;;;;;;;6.03;2.53;;;;;;;15.51;96.40;99027.88;5032983;28;20029;-70
2021/07/09 01:00:11;;;;;;;4.68;2.60;;;;;;;15.43;96.31;99025.47;5032729;28;20021;-70
2021/07/09 01:02:37;;;;;;;8.90;2.70;;;;;;;15.36;97.29;99005.63;5032399;28;20158;-71
2021/07/09 01:05:08;;;;;;;7.63;2.67;;;;;;;15.47;96.18;99029.38;5031162;28;20029;-69
2021/07/09 01:07:34;;;;;;;3.50;2.38;;;;;;;15.32;96.35;99004.41;5031817;28;20029;-71
2021/07/09 01:09:59;;;;;;;7.22;2.95;;;;;;;15.38;96.47;99008.09;5032732;28;20033;-71
2021/07/09 01:12:25;;;;;;;4.82;2.53;;;;;;;15.25;95.93;98993.59;5032540;28;20028;-67
2021/07/09 01:14:51;;;;;;;8.57;2.25;;;;;;;15.40;96.99;99017.72;5031591;28;20056;-70
2021/07/09 01:17:16;;;;;;;5.03;2.65;;;;;;;15.32;96.34;99005.22;5032046;28;20014;-70
2021/07/09 01:19:42;;;;;;;8.65;2.67;;;;;;;15.38;96.37;99021.72;5032110;28;20120;-71
2021/07/09 01:22:08;;;;;;;4.57;2.60;;;;;;;15.40;96.30;99028.63;5031528;28;20108;-70
2021/07/09 01:24:35;;;;;;;3.38;2.17;;;;;;;15.38;96.51;99010.81;5031266;28;20029;-71
2021/07/09 01:27:01;;;;;;;4.38;2.10;;;;;;;15.45;95.71;99027.94;5031983;28;20018;-71
2021/07/09 01:29:26;;;;;;;4.75;2.35;;;;;;;15.41;96.26;99024.03;5032592;28;20082;-71
2021/07/09 01:31:52;;;;;;;5.13;2.38;;;;;;;15.37;96.42;99030.97;5031913;28;20029;-71
2021/07/09 01:34:17;;;;;;;4.20;2.50;;;;;;;15.19;96.06;98997.22;5030748;28;20090;-71
2021/07/09 01:36:43;;;;;;;5.68;2.47;;;;;;;15.39;96.26;99024.22;5032098;28;20425;-72
2021/07/09 01:39:08;;;;;;;4.70;2.85;;;;;;;15.36;96.51;99026.59;5010494;28;20037;-72
2021/07/09 01:41:34;;;;;;;6.88;2.42;;;;;;;15.33;96.55;99023.25;5012594;28;20022;-71
2021/07/09 01:44:01;;;;;;;5.03;2.38;;;;;;;15.26;97.30;99002.59;5026649;28;20414;-70
2021/07/09 01:46:26;;;;;;;4.68;2.60;;;;;;;15.28;97.34;99033.19;5032180;28;20480;-72
2021/07/09 01:48:51;;;;;;;7.45;2.95;;;;;;;15.19;98.02;99010.84;5031037;28;20040;-70
2021/07/09 01:51:17;;;;;;;7.55;3.03;;;;;;;15.22;98.09;99023.19;5032224;28;20024;-72
2021/07/09 01:53:42;;;;;;;3.63;3.03;;;;;;;14.96;98.88;98987.03;5012850;28;20040;-72
2021/07/09 01:56:07;;;;;;;6.13;3.00;;;;;;;15.08;99.15;99003.44;5013601;28;20518;-70
2021/07/09 01:58:33;;;;;;;9.05;3.13;;;;;;;15.07;99.90;99026.31;5014266;28;20028;-71
2021/07/09 02:00:58;;;;;;;5.30;2.97;;;;;;;15.03;99.82;99023.19;5031154;28;20025;-71
2021/07/09 02:03:23;;;;;;;7.15;3.47;;;;;;;14.97;100.00;99002.31;5031251;28;20041;-72
2021/07/09 02:05:48;;;;;;;6.60;3.33;;;;;;;15.00;100.00;99011.91;5030722;28;20387;-71
2021/07/09 02:08:14;;;;;;;8.10;3.22;;;;;;;15.04;100.00;99019.41;5031966;28;20028;-69
2021/07/09 02:10:42;;;;;;;7.95;4.03;;;;;;;14.88;100.00;98998.19;5031966;28;20053;-71
2021/07/09 02:13:08;;;;;;;9.07;3.95;;;;;;;15.05;100.00;99023.81;5030502;28;20522;-72
2021/07/09 02:15:39;;;;;;;8.38;4.00;;;;;;;15.01;100.00;99019.03;5013408;28;20121;-72
2021/07/09 02:18:06;;;;;;;7.85;3.72;;;;;;;14.92;100.00;99002.16;5031097;28;20023;-71
2021/07/09 02:20:34;;;;;;;8.07;3.63;;;;;;;14.90;99.99;98996.09;5031819;28;20525;-72
2021/07/09 02:23:01;;;;;;;7.82;3.63;;;;;;;15.05;100.00;99012.06;5031255;28;20060;-71
2021/07/09 02:25:27;;;;;;;6.47;3.10;;;;;;;15.01;100.00;99016.28;5031456;28;20067;-70
2021/07/09 02:27:55;;;;;;;7.25;3.53;;;;;;;14.96;100.00;99014.28;5030703;28;20440;-71
2021/07/09 02:30:21;;;;;;;5.70;3.30;;;;;;;15.03;100.00;99025.09;5026423;28;20034;-71
2021/07/09 02:32:47;;;;;;;8.40;3.78;;;;;;;14.92;100.00;98995.88;5031195;28;20021;-71
2021/07/09 02:35:16;;;;;;;4.05;3.35;;;;;;;15.02;100.00;99018.81;5013519;28;20395;-70
2021/07/09 02:37:43;;;;;;;8.57;3.50;;;;;;;14.99;100.00;99016.53;5031576;28;20067;-69
2021/07/09 02:40:12;;;;;;;6.90;3.53;;;;;;;15.05;100.00;99023.81;5031126;28;20044;-69
2021/07/09 02:42:48;;;;;;;6.75;3.35;;;;;;;15.01;100.00;99019.88;5030797;28;20028;-69
2021/07/09 02:45:15;;;;;;;6.05;3.38;;;;;;;15.05;100.00;99015.63;5031049;28;20404;-69
2021/07/09 02:47:42;;;;;;;11.15;3.55;;;;;;;14.92;100.00;98999.44;5024544;28;20453;-69
2021/07/09 02:50:09;;;;;;;5.10;3.28;;;;;;;15.02;100.00;99026.16;5011803;28;20021;-70
2021/07/09 02:52:35;;;;;;;7.57;3.78;;;;;;;14.91;100.00;98997.78;5021610;28;20022;-69
2021/07/09 02:55:01;;;;;;;7.38;3.67;;;;;;;15.04;100.00;99022.16;5031050;28;20036;-69
2021/07/09 02:57:26;;;;;;;6.57;3.78;;;;;;;15.01;100.00;99013.56;5034941;28;20040;-69
2021/07/09 02:59:52;;;;;;;6.80;4.10;;;;;;;15.04;100.00;99013.97;5035108;28;20025;-69
2021/07/09 03:02:17;;;;;;;7.90;3.85;;;;;;;15.01;100.00;99013.56;5034961;28;20029;-69
2021/07/09 03:04:42;;;;;;;6.13;4.40;;;;;;;14.94;100.00;99008.22;5030359;28;20039;-71
2021/07/09 03:07:08;;;;;;;7.22;4.05;;;;;;;14.90;100.00;99001.53;5033890;28;20079;-71
2021/07/09 03:09:33;;;;;;;6.70;3.90;;;;;;;14.97;100.00;99010.47;5031027;28;20413;-71
2021/07/09 03:11:58;;;;;;;6.28;3.97;;;;;;;14.79;100.00;98980.50;5032228;28;20021;-71
2021/07/09 03:14:24;;;;;;;8.40;4.07;;;;;;;14.71;100.00;98980.81;5034735;28;20475;-69
2021/07/09 03:16:49;;;;;;;9.27;3.85;;;;;;;14.83;100.00;99003.53;5035080;28;20491;-72
2021/07/09 03:19:14;;;;;;;11.65;4.35;;;;;;;14.70;100.00;98982.72;5016651;28;20029;-72
2021/07/09 03:21:39;;;;;;;12.77;4.50;;;;;;;14.75;100.00;98999.22;5034117;28;20548;-72
2021/07/09 03:24:05;;;;;;;7.30;4.45;;;;;;;14.89;100.00;99016.22;5034059;28;20060;-71
2021/07/09 03:26:31;;;;;;;9.20;4.30;;;;;;;14.91;100.00;99022.28;5034540;28;20044;-72
2021/07/09 03:28:59;;;;;;;8.23;4.38;;;;;;;14.94;100.00;99019.09;5034278;28;20095;-72
2021/07/09 03:31:26;;;;;;;8.68;4.35;;;;;;;14.92;100.00;99013.06;5034623;28;20025;-71
2021/07/09 03:33:52;;;;;;;8.05;4.40;;;;;;;14.79;100.00;98991.41;5034476;28;20025;-71
2021/07/09 03:36:17;;;;;;;9.23;4.60;;;;;;;14.81;100.00;99000.19;5034831;28;20080;-71
2021/07/09 03:38:42;;;;;;;9.68;5.15;;;;;;;14.93;100.00;99017.44;5033552;28;20035;-70
2021/07/09 03:41:07;;;;;;;10.82;5.38;;;;;;;14.85;100.00;99006.84;5034158;28;20091;-71
2021/07/09 03:43:33;;;;;;;11.73;5.13;;;;;;;14.93;100.00;99014.69;5033363;28;20040;-71
2021/07/09 03:45:58;;;;;;;7.45;4.43;;;;;;;14.85;100.00;99020.44;5034288;28;20029;-72
2021/07/09 03:48:23;;;;;;;10.38;4.90;;;;;;;14.83;100.00;99014.41;5033469;28;20040;-71
2021/07/09 03:50:49;;;;;;;11.15;4.72;;;;;;;14.90;100.00;99028.78;5033963;28;20108;-71
2021/07/09 03:53:14;;;;;;;7.05;4.80;;;;;;;14.91;100.00;99022.28;5034075;28;20032;-71
2021/07/09 03:55:39;;;;;;;6.60;4.65;;;;;;;14.85;100.00;99009.56;5034275;28;20036;-71
2021/07/09 03:58:05;;;;;;;8.10;4.55;;;;;;;14.80;100.00;99001.22;5033580;28;20024;-71
2021/07/09 04:00:30;;;;;;;11.32;5.38;;;;;;;14.77;100.00;99005.22;5033816;28;20032;-72
2021/07/09 04:02:55;;;;;;;8.02;4.93;;;;;;;14.91;100.00;99025.00;5033376;28;20025;-72
2021/07/09 04:05:20;;;;;;;10.77;4.75;;;;;;;14.78;100.00;99003.38;5033644;28;20076;-72
2021/07/09 04:07:46;;;;;;;8.15;4.60;;;;;;;14.94;100.00;99032.72;5015089;28;20147;-72
2021/07/09 04:10:12;;;;;;;6.72;4.82;;;;;;;14.88;100.00;99025.44;5032690;28;20396;-71
2021/07/09 04:12:37;;;;;;;8.00;4.28;;;;;;;14.93;100.00;99044.66;5033677;28;20075;-72
2021/07/09 04:15:03;;;;;;;6.40;4.47;;;;;;;14.84;100.00;99026.97;5033311;28;20033;-72
2021/07/09 04:17:28;;;;;;;7.93;5.10;;;;;;;14.84;100.00;99040.59;5015737;28;20120;-72
2021/07/09 04:19:54;;;;;;;13.32;4.90;;;;;;;14.81;100.00;99041.03;5015602;28;20112;-71
2021/07/09 04:22:19;;;;;;;9.82;5.15;;;;;;;14.92;100.00;99053.09;5032358;28;20487;-72
2021/07/09 04:24:45;;;;;;;10.88;5.00;;;;;;;14.71;100.00;99022.50;5033417;28;20018;-72
2021/07/09 04:27:10;;;;;;;10.20;5.10;;;;;;;14.93;100.00;99052.00;5033560;28;20467;-72
2021/07/09 04:29:36;;;;;;;6.70;4.97;;;;;;;14.71;100.00;99019.75;5032885;28;20041;-70
2021/07/09 04:32:01;;;;;;;6.45;4.60;;;;;;;14.79;100.00;99037.72;5014839;28;20026;-72
2021/07/09 04:34:27;;;;;;;9.52;4.95;;;;;;;14.87;100.00;99056.47;5032141;28;20080;-69
2021/07/09 04:36:52;;;;;;;7.82;4.15;;;;;;;14.69;100.00;99027.31;5033258;28;20036;-69
2021/07/09 04:39:17;;;;;;;6.82;4.47;;;;;;;14.72;100.00;99034.22;5031271;28;20033;-69
2021/07/09 04:41:43;;;;;;;9.15;4.53;;;;;;;14.82;100.00;99067.22;5030453;28;20017;-72
2021/07/09 04:44:09;;;;;;;6.90;4.53;;;;;;;14.65;100.00;99051.47;5015070;28;20121;-72
2021/07/09 04:46:35;;;;;;;7.00;4.22;;;;;;;14.68;100.00;99051.00;5031850;28;20440;-71
2021/07/09 04:49:00;;;;;;;6.18;4.18;;;;;;;14.69;100.00;99063.56;5014731;28;20459;-72
2021/07/09 04:51:25;;;;;;;9.93;4.57;;;;;;;14.57;100.00;99050.91;5032978;28;20052;-72
2021/07/09 04:53:51;;;;;;;8.65;4.35;;;;;;;14.64;100.00;99063.38;5032394;28;20391;-72
2021/07/09 04:56:16;;;;;;;9.18;4.25;;;;;;;14.63;100.00;99075.34;5033181;28;20026;-70
2021/07/09 04:58:41;;;;;;;8.13;4.10;;;;;;;14.48;100.00;99053.84;5032053;28;20032;-72
2021/07/09 05:01:06;;;;;;;7.75;4.10;;;;;;;14.45;100.00;99056.22;5015437;28;20036;-71
2021/07/09 05:03:32;;;;;;;8.85;4.50;;;;;;;14.63;100.00;99088.97;5031639;28;20036;-71
2021/07/09 05:05:57;;;;;;;11.18;3.80;;;;;;;14.62;100.00;99084.59;5025811;28;20034;-72
2021/07/09 05:08:22;;;;;;;6.32;3.95;;;;;;;14.60;100.00;99081.25;5025958;28;20036;-71
2021/07/09 05:10:48;;;;;;;6.70;4.28;;;;;;;14.59;100.00;99081.47;5032388;28;20109;-72
2021/07/09 05:13:13;;;;;;;7.82;4.15;;;;;;;14.62;100.00;99079.13;5032515;28;20025;-71
2021/07/09 05:15:38;;;;;;;6.10;4.00;;;;;;;14.70;100.00;99099.81;5032875;28;20426;-72
2021/07/09 05:18:03;;;;;;;10.88;4.63;;;;;;;14.72;100.00;99103.13;5031572;28;20041;-72
2021/07/09 05:20:29;;;;;;;8.25;4.18;;;;;;;14.62;100.00;99089.19;5031643;28;20116;-71
2021/07/09 05:22:54;;;;;;;6.57;4.13;;;;;;;14.69;100.00;99093.50;5031063;28;20030;-72
2021/07/09 05:25:20;;;;;;;17.02;4.28;;;;;;;14.59;100.00;99078.72;5031831;28;20041;-71
2021/07/09 05:27:45;;;;;;;9.85;4.20;;;;;;;14.69;100.00;99093.50;5032559;28;20105;-72
2021/07/09 05:30:11;;;;;;;8.38;4.13;;;;;;;14.72;100.00;99102.28;5030134;28;20088;-71
2021/07/09 05:32:39;;;;;;;7.13;4.20;;;;;;;14.74;100.00;99111.91;5018313;28;20032;-71
2021/07/09 05:35:06;;;;;;;8.20;4.55;;;;;;;14.73;100.00;99093.09;5012045;28;20017;-72
2021/07/09 05:37:32;;;;;;;10.38;4.18;;;;;;;14.69;100.00;99109.84;5019615;28;20017;-72
2021/07/09 05:39:57;;;;;;;5.40;4.20;;;;;;;14.59;100.00;99097.78;5017457;28;20097;-77
2021/07/09 05:42:23;;;;;;;6.13;4.03;;;;;;;14.46;100.00;99077.78;4998864;28;20117;-74
2021/07/09 05:44:48;;;;;;;5.55;3.97;;;;;;;14.53;100.00;99088.63;5014531;28;20380;-72
2021/07/09 05:47:15;;;;;;;6.65;4.13;;;;;;;14.55;100.00;99097.41;5033533;28;20076;-73
2021/07/09 05:49:40;;;;;;;7.25;4.25;;;;;;;14.45;100.00;99097.03;5019189;28;20054;-73
2021/07/09 05:52:06;;;;;;;8.98;4.75;;;;;;;14.67;100.00;99127.47;5017206;28;20424;-73
2021/07/09 05:54:31;;;;;;;6.70;4.32;;;;;;;14.50;100.00;99105.38;5008273;28;20022;-74
2021/07/09 05:56:57;;;;;;;8.52;4.30;;;;;;;14.66;100.00;99128.53;5020521;28;20020;-74
2021/07/09 05:59:22;;;;;;;9.32;4.80;;;;;;;14.65;100.00;99133.16;5019438;28;20029;-73
2021/07/09 06:01:48;;;;;;;5.72;4.00;;;;;;;14.60;100.00;99108.47;5032036;28;20025;-73
2021/07/09 06:04:14;;;;;;;8.30;4.55;;;;;;;14.69;100.00;99123.47;5031810;28;20106;-73
2021/07/09 06:06:40;;;;;;;6.25;4.28;;;;;;;14.72;100.00;99133.06;5018219;28;20487;-72
2021/07/09 06:09:05;;;;;;;5.28;3.90;;;;;;;14.64;100.00;99120.56;4998120;28;20018;-73
2021/07/09 06:11:31;;;;;;;8.13;4.40;;;;;;;14.60;100.00;99116.66;5005010;28;20021;-72
2021/07/09 06:13:57;;;;;;;8.20;4.50;;;;;;;14.63;100.00;99131.69;5020454;28;20032;-74
2021/07/09 06:16:23;;;;;;;7.95;4.20;;;;;;;14.73;100.00;99137.50;5012850;28;20095;-71
2021/07/09 06:18:49;;;;;;;6.00;4.60;;;;;;;14.65;100.00;99129.59;5031228;28;20479;-72
2021/07/09 06:21:14;;;;;;;9.20;4.45;;;;;;;14.55;100.00;99118.38;5016385;28;20029;-68
2021/07/09 06:23:41;;;;;;;6.35;4.30;;;;;;;14.69;100.00;99163.50;5013450;28;20036;-69
2021/07/09 06:26:06;;;;;;;7.80;4.60;;;;;;;14.63;100.00;99137.97;5031893;28;20030;-69
2021/07/09 06:28:32;;;;;;;7.32;4.43;;;;;;;14.75;100.00;99159.03;5031875;28;20025;-69
2021/07/09 06:30:57;;;;;;;9.73;4.70;;;;;;;14.82;100.00;99157.94;5012703;28;20475;-70
2021/07/09 06:33:22;;;;;;;7.70;4.32;;;;;;;14.78;100.00;99140.38;5031117;28;20048;-70
2021/07/09 06:35:47;;;;;;;6.80;4.60;;;;;;;14.83;99.77;99142.44;5027176;28;20103;-75
2021/07/09 06:38:13;;;;;;;6.80;4.20;;;;;;;14.94;99.48;99149.88;5016990;28;20037;-75
2021/07/09 06:40:38;;;;;;;6.88;4.78;;;;;;;14.95;99.33;99167.88;5017096;28;20040;-75
2021/07/09 06:43:05;;;;;;;5.53;4.13;;;;;;;15.02;99.57;99179.56;5014525;28;20037;-75
2021/07/09 06:45:30;;;;;;;13.35;4.90;;;;;;;14.89;99.70;99166.06;5016581;28;20033;-75
2021/07/09 06:47:55;;;;;;;9.90;4.85;;;;;;;14.92;99.89;99162.88;5017760;28;20021;-75
2021/07/09 06:50:21;;;;;;;6.93;4.75;;;;;;;14.93;99.93;99180.06;5017882;28;20052;-76
2021/07/09 06:52:46;;;;;;;7.75;4.60;;;;;;;14.76;99.87;99155.28;5035329;28;20025;-76
2021/07/09 06:55:13;;;;;;;7.90;4.47;;;;;;;15.02;99.67;99192.38;5020768;28;20036;-76
2021/07/09 06:57:45;;;;;;;6.55;4.20;;;;;;;15.07;99.07;99185.19;5035373;28;20024;-76
2021/07/09 07:00:11;;;;;;;10.20;5.40;;;;;;;15.02;98.83;99185.03;5016832;28;20059;-75
2021/07/09 07:02:36;;;;;;;7.75;4.82;;;;;;;15.15;98.87;99192.25;5034896;28;20029;-76
2021/07/09 07:05:02;;;;;;;7.18;4.65;;;;;;;15.29;97.95;99198.41;5034856;28;20099;-71
2021/07/09 07:07:28;;;;;;;8.68;4.80;;;;;;;15.21;97.17;99187.78;5034359;28;20032;-71
2021/07/09 07:09:53;;;;;;;10.70;4.90;;;;;;;15.26;96.63;99185.22;5022726;28;20033;-71
2021/07/09 07:12:18;;;;;;;5.93;4.50;;;;;;;15.45;95.82;99189.63;5025558;28;20033;-71
2021/07/09 07:14:44;;;;;;;6.50;4.65;;;;;;;15.55;95.61;99195.41;5027887;28;20742;-72
2021/07/09 07:17:10;;;;;;;8.20;5.10;;;;;;;15.68;95.79;99201.78;5028412;28;20049;-72
2021/07/09 07:19:35;;;;;;;7.78;4.88;;;;;;;15.60;94.80;99172.09;5012776;28;20021;-72
2021/07/09 07:22:02;;;;;;;6.72;5.07;;;;;;;15.70;94.73;99205.16;5030318;28;20025;-71
2021/07/09 07:24:28;;;;;;;10.77;5.05;;;;;;;15.53;96.35;99185.78;5008983;28;20480;-72
2021/07/09 07:26:53;;;;;;;7.72;5.50;;;;;;;15.44;97.30;99198.88;5017714;28;20442;-72
2021/07/09 07:29:19;;;;;;;10.40;5.97;;;;;;;15.53;97.66;99204.88;5033215;28;20029;-71
2021/07/09 07:31:44;;;;;;;8.20;5.40;;;;;;;15.72;96.34;99197.59;5020387;28;20459;-70
2021/07/09 07:34:09;;;;;;;7.68;5.10;;;;;;;15.78;95.30;99219.31;5034640;28;20091;-71
2021/07/09 07:36:35;;;;;;;7.90;5.28;;;;;;;15.70;95.48;99210.63;5028120;28;20157;-71
2021/07/09 07:39:00;;;;;;;6.13;4.53;;;;;;;15.84;94.86;99211.28;5029725;28;20033;-71
2021/07/09 07:41:25;;;;;;;8.52;4.60;;;;;;;15.47;95.86;99222.16;5027546;28;20029;-71
2021/07/09 07:43:51;;;;;;;6.45;4.60;;;;;;;15.40;95.92;99205.84;5030663;28;20116;-73
2021/07/09 07:46:16;;;;;;;8.18;4.95;;;;;;;15.37;97.00;99219.09;5016540;28;20036;-70
2021/07/09 07:48:42;;;;;;;7.93;5.25;;;;;;;15.30;97.31;99228.19;5034331;28;20036;-70
2021/07/09 07:51:08;;;;;;;8.48;5.05;;;;;;;15.24;97.05;99200.97;5034383;28;20029;-69
2021/07/09 07:53:34;;;;;;;7.80;4.80;;;;;;;15.40;96.79;99216.75;5034086;28;20065;-72
2021/07/09 07:56:01;;;;;;;8.68;4.93;;;;;;;15.21;95.32;99194.06;5034617;28;20387;-68
2021/07/09 07:58:27;;;;;;;7.93;4.68;;;;;;;15.50;96.31;99217.06;5034062;28;20017;-68
2021/07/09 08:00:52;;;;;;;7.80;5.00;;;;;;;15.66;95.37;99228.44;5016393;28;20028;-69
2021/07/09 08:03:17;;;;;;;6.85;4.53;;;;;;;15.90;94.39;99224.00;5033809;28;20021;-70
2021/07/09 08:05:43;;;;;;;9.50;4.47;;;;;;;16.09;92.73;99203.84;5034176;28;20494;-68
2021/07/09 08:08:08;;;;;;;10.77;5.00;;;;;;;15.94;91.96;99206.13;5016053;28;20078;-69
2021/07/09 08:10:33;;;;;;;7.32;4.25;;;;;;;16.51;92.07;99233.13;5033935;28;20037;-71
2021/07/09 08:12:58;;;;;;;7.45;4.30;;;;;;;16.35;91.37;99229.97;5033748;28;20067;-68
2021/07/09 08:15:24;;;;;;;6.20;4.45;;;;;;;16.50;91.53;99231.44;5033754;28;20029;-70
2021/07/09 08:17:49;;;;;;;6.18;4.57;;;;;;;16.69;90.52;99226.75;5033774;28;20104;-68
2021/07/09 08:20:16;;;;;;;7.97;4.53;;;;;;;16.60;91.20;99237.19;5033959;28;20494;-69
2021/07/09 08:22:41;;;;;;;7.32;4.38;;;;;;;16.92;90.38;99228.75;5033611;28;20062;-68
2021/07/09 08:25:08;;;;;;;6.97;4.40;;;;;;;16.77;88.75;99213.66;5033649;28;20026;-69
2021/07/09 08:27:38;;;;;;;8.98;4.65;;;;;;;17.22;88.77;99224.06;5025097;28;20022;-71
2021/07/09 08:30:04;;;;;;;9.18;4.53;;;;;;;16.82;88.55;99211.06;5012816;28;20083;-68
2021/07/09 08:32:29;;;;;;;11.32;4.55;;;;;;;16.88;87.34;99208.44;5013512;28;20045;-68
2021/07/09 08:34:55;;;;;;;6.75;4.72;;;;;;;17.24;87.08;99224.66;5013751;28;20026;-68
2021/07/09 08:37:20;;;;;;;8.45;4.78;;;;;;;17.21;87.92;99227.03;5026386;28;20103;-68
2021/07/09 08:39:45;;;;;;;9.48;4.32;;;;;;;17.38;86.66;99235.38;5033605;28;20025;-68
2021/07/09 08:42:11;;;;;;;6.35;4.22;;;;;;;17.42;86.07;99220.13;5033514;28;20029;-69
2021/07/09 08:44:36;;;;;;;6.30;4.70;;;;;;;17.04;87.97;99207.75;5032857;28;20533;-70
2021/07/09 08:47:02;;;;;;;5.80;4.50;;;;;;;17.89;85.53;99236.56;5033266;28;20025;-68
2021/07/09 08:49:27;;;;;;;5.68;4.03;;;;;;;18.37;83.67;99229.91;5033316;28;20025;-68
2021/07/09 08:51:53;;;;;;;6.43;4.47;;;;;;;18.57;82.46;99215.75;5032760;28;20364;-70
2021/07/09 08:54:20;;;;;;;5.72;3.78;;;;;;;18.87;80.98;99226.47;5032519;28;20045;-68
2021/07/09 08:56:48;;;;;;;5.10;3.90;;;;;;;19.11;80.45;99234.56;5033092;28;20491;-68
2021/07/09 08:59:13;;;;;;;6.35;3.60;;;;;;;18.74;79.40;99224.03;5033128;28;20033;-68
2021/07/09 09:01:55;;;;;;;6.30;3.75;;;;;;;19.42;76.47;99209.28;5032729;28;20029;-68
2021/07/09 09:04:27;;;;;;;8.27;3.78;;;;;;;19.77;75.91;99232.03;5033083;28;20675;-68
2021/07/09 09:07:08;;;;;;;6.70;4.00;;;;;;;19.96;75.33;99222.41;5032708;28;20040;-68
2021/07/09 09:09:38;;;;;;;6.40;3.22;;;;;;;20.43;72.69;99243.03;5024611;28;20108;-68
2021/07/09 09:12:15;;;;;;;11.50;3.70;;;;;;;21.26;70.49;99235.38;5032468;28;20120;-68
2021/07/09 09:14:41;;;;;;;5.95;3.53;;;;;;;21.57;68.49;99239.22;5032733;28;20071;-69
2021/07/09 09:17:36;;;;;;;3.67;3.08;;;;;;;21.58;69.79;99246.38;5017616;28;20080;-68
2021/07/09 09:20:16;;;;;;;4.75;3.25;;;;;;;21.53;69.43;99245.50;5033128;28;20029;-68
2021/07/09 09:22:47;;;;;;;3.78;3.15;;;;;;;21.76;67.68;99238.78;5033055;28;20447;-68
2021/07/09 09:25:13;;;;;;;6.05;3.40;;;;;;;21.33;66.75;99243.41;5033238;28;20515;-68
2021/07/09 09:27:38;;;;;;;6.35;3.60;;;;;;;21.62;67.79;99238.44;5032670;28;20029;-68
2021/07/09 09:30:10;;;;;;;7.70;4.18;;;;;;;21.48;67.58;99249.03;5032736;28;20045;-68
2021/07/09 09:32:48;;;;;;;5.78;3.88;;;;;;;21.91;67.74;99244.38;5032397;28;20029;-69
2021/07/09 09:35:24;;;;;;;6.60;3.70;;;;;;;22.34;65.33;99247.09;5025954;28;20025;-69
2021/07/09 09:37:58;;;;;;;4.75;3.33;;;;;;;22.43;65.56;99239.97;5030621;28;20029;-69
2021/07/09 09:40:26;;;;;;;6.93;3.47;;;;;;;21.90;65.47;99250.97;5026037;28;20103;-69
2021/07/09 09:42:52;;;;;;;5.60;3.70;;;;;;;21.46;67.20;99234.75;5031578;28;20029;-69
2021/07/09 09:45:22;;;;;;;8.95;4.30;;;;;;;21.42;68.42;99250.13;5031173;28;20029;-69
2021/07/09 09:47:48;;;;;;;5.47;3.95;;;;;;;21.24;69.41;99257.63;5034828;28;20038;-66
2021/07/09 09:50:16;;;;;;;4.82;3.30;;;;;;;21.16;69.09;99255.38;5023868;28;20064;-66
2021/07/09 09:52:47;;;;;;;8.18;3.58;;;;;;;21.11;69.61;99254.50;5031645;28;20056;-73
2021/07/09 09:55:22;;;;;;;6.03;3.50;;;;;;;21.14;69.28;99243.81;5022601;28;20025;-74
2021/07/09 09:58:06;;;;;;;6.13;3.88;;;;;;;21.65;68.00;99252.50;5028610;28;20499;-68
2021/07/09 10:00:31;;;;;;;7.38;3.50;;;;;;;21.96;66.79;99252.69;5032332;28;20064;-68
2021/07/09 10:02:56;;;;;;;9.77;3.45;;;;;;;22.50;65.49;99243.28;5032922;28;20491;-71
2021/07/09 10:05:22;;;;;;;7.22;3.70;;;;;;;22.88;64.04;99243.94;5031366;28;20777;-72
2021/07/09 10:07:47;;;;;;;6.50;3.70;;;;;;;23.11;61.81;99237.94;5031706;28;20013;-71
2021/07/09 10:10:15;;;;;;;6.45;3.30;;;;;;;23.60;61.68;99223.53;5030230;28;20040;-71
2021/07/09 10:12:43;;;;;;;4.28;3.22;;;;;;;24.39;58.11;99242.38;5026401;28;20025;-67
2021/07/09 10:15:09;;;;;;;4.50;2.80;;;;;;;24.82;57.47;99226.16;5031849;28;20037;-72
2021/07/09 10:17:36;;;;;;;4.75;2.65;;;;;;;24.93;54.92;99238.78;5015275;28;20501;-74
2021/07/09 10:20:03;;;;;;;7.32;2.90;;;;;;;24.81;56.63;99238.31;5012483;28;20026;-67
2021/07/09 10:22:29;;;;;;;8.10;2.90;;;;;;;24.63;57.86;99242.59;5024022;28;20030;-73
2021/07/09 10:24:55;;;;;;;4.80;2.70;;;;;;;26.61;51.03;99238.25;5021831;28;20072;-73
2021/07/09 10:27:23;;;;;;;8.43;2.90;;;;;;;27.19;48.94;99228.81;5011872;28;20111;-73
2021/07/09 10:29:50;;;;;;;7.30;2.50;;;;;;;27.86;48.90;99212.66;5028273;28;20509;-74
2021/07/09 10:32:36;;;;;;;4.57;2.10;;;;;;;28.73;45.95;99237.84;5018686;28;20546;-67
2021/07/09 10:35:06;;;;;;;6.47;2.22;;;;;;;29.39;44.70;99227.09;5026661;28;20109;-74
2021/07/09 10:37:32;;;;;;;3.88;2.30;;;;;;;30.31;43.91;99230.22;5018981;28;20057;-74
2021/07/09 10:40:06;;;;;;;2.97;1.95;;;;;;;29.95;44.51;99213.63;5031502;28;20083;-74
2021/07/09 10:42:39;;;;;;;4.40;2.15;;;;;;;28.08;46.45;99219.44;5031202;28;20044;-73
2021/07/09 10:45:18;;;;;;;3.35;2.30;;;;;;;26.63;50.10;99224.91;5031373;28;20084;-74
2021/07/09 10:47:53;;;;;;;3.85;1.90;;;;;;;26.49;51.53;99230.38;5017105;28;20399;-72
2021/07/09 10:50:20;;;;;;;4.47;2.40;;;;;;;26.87;50.88;99222.06;5022154;28;20030;-75
2021/07/09 10:52:59;;;;;;;3.88;2.17;;;;;;;26.33;51.17;99215.88;5016890;28;20419;-74
2021/07/09 10:55:27;;;;;;;;;;;;;;;26.63;50.62;99233.25;5021147;28;20054;-72
2021/07/09 10:58:08;;;;;;;9.60;2.08;;;;;;;25.94;50.45;99236.31;5004491;28;19914;-72
2021/07/09 11:00:52;;;;;;;5.90;2.85;;;;;;;25.27;51.45;99243.56;5011805;28;20105;-71
2021/07/09 11:03:28;;;;;;;14.07;6.57;;;;;;;25.01;51.32;99238.19;5014367;28;20495;-71
2021/07/09 11:05:54;;;;;;;6.10;4.05;;;;;;;24.98;53.40;99233.22;5028785;28;20517;-71
2021/07/09 11:08:34;;;;;;;11.18;5.13;;;;;;;26.29;49.39;99237.00;5029814;28;20048;-71
2021/07/09 11:11:03;;;;;;;11.82;6.00;;;;;;;28.75;45.63;99221.66;5029750;28;20057;-71
2021/07/09 11:13:44;;;;;;;14.93;8.20;;;;;;;30.27;43.13;99221.69;5010431;28;20041;-71
2021/07/09 11:16:25;;;;;;;6.28;4.38;;;;;;;29.81;43.32;99217.34;5012981;28;20029;-71
2021/07/09 11:18:59;;;;;;;8.77;6.70;;;;;;;28.25;45.89;99202.97;5032383;28;20104;-72
2021/07/09 11:21:30;;;;;;;7.07;5.03;;;;;;;29.82;41.80;99210.66;5031675;28;20039;-71
2021/07/09 11:23:56;;;;;;;4.88;3.50;;;;;;;28.76;45.03;99210.19;5037166;28;20075;-70
2021/07/09 11:26:21;;;;;;;4.60;2.87;;;;;;;29.98;41.97;99207.44;5032316;28;20510;-71
2021/07/09 11:28:47;;;;;;;4.38;2.80;;;;;;;30.38;40.12;99204.63;5032319;28;20581;-71